Paramoti, Brazil
Current Conditions -  °F | °C
As of 5:00 PM on Monday 20 Oct 2014 (Local Time) from SBFZ Reporting Station
Scattered Clouds Scattered Clouds  
Wind Chill: 81°   Ceiling: Unl
Heat Index: 83°   Visibility: 6mi
Dew Point: 68°   Wind: 13mph
Humidity: 65%   Direction: 90°E
Pressure: 29.83"   Gusts: NA
Location:  4.1°S, 39.24°W
Report Text: SBFZ 202000Z 09011KT 9999 SCT020 27/20 Q1010
Loading
Personal Weather Stations






























Interactive Weather Map
Tropical Storm Tracking
New forecast layout! Learn more

10-Day Weather Forecast

Advertisements
Track Severe Weather on mobile